createdAt,value
2022-10-04T00:01:01.298Z,102158.19
2022-10-04T00:03:36.225Z,102161.66
2022-10-04T00:06:35.953Z,102154.78
2022-10-04T00:09:17.356Z,102152.19
2022-10-04T00:11:49.679Z,102147.88
2022-10-04T00:14:24.495Z,102150.47
2022-10-04T00:16:58.674Z,102137.50
2022-10-04T00:19:55.920Z,102155.66
2022-10-04T00:22:36.251Z,102150.47
2022-10-04T00:25:14.785Z,102143.59
2022-10-04T00:28:22.285Z,102138.38
2022-10-04T00:31:13.212Z,102136.66
2022-10-04T00:33:45.027Z,102138.38
2022-10-04T00:36:24.274Z,102130.59
2022-10-04T00:39:24.232Z,102122.84
2022-10-04T00:41:51.631Z,102127.19
2022-10-04T00:44:34.627Z,102123.72
2022-10-04T00:47:12.885Z,102118.50
2022-10-04T00:49:45.086Z,102119.38
2022-10-04T00:52:28.769Z,102130.63
2022-10-04T00:55:06.324Z,102137.56
2022-10-04T00:57:37.569Z,102141.00
2022-10-04T01:00:21.843Z,102147.91
2022-10-04T01:03:02.110Z,102136.63
2022-10-04T01:06:08.994Z,102133.22
2022-10-04T01:08:41.051Z,102128.88
2022-10-04T01:11:16.401Z,102128.88
2022-10-04T01:13:51.934Z,102124.59
2022-10-04T01:16:29.185Z,102134.94
2022-10-04T01:19:17.213Z,102130.63
2022-10-04T01:22:08.888Z,102122.84
2022-10-04T01:24:42.210Z,102124.59
2022-10-04T01:27:41.522Z,102124.59
2022-10-04T01:30:15.660Z,102121.97
2022-10-04T01:32:47.156Z,102114.19
2022-10-04T01:35:16.439Z,102102.09
2022-10-04T01:37:46.268Z,102105.53
2022-10-04T01:40:17.405Z,102104.72
2022-10-04T01:43:12.308Z,102096.06
2022-10-04T01:45:48.084Z,102092.59
2022-10-04T01:48:22.930Z,102103.84
2022-10-04T01:51:07.530Z,102092.59
2022-10-04T01:53:45.443Z,102091.75
2022-10-04T01:56:27.132Z,102097.81
2022-10-04T01:59:08.144Z,102096.94
2022-10-04T02:01:52.727Z,102086.56
2022-10-04T02:04:41.381Z,102088.31
2022-10-04T02:07:15.557Z,102095.19
2022-10-04T02:09:49.512Z,102077.91
2022-10-04T02:12:23.151Z,102085.69
2022-10-04T02:14:57.312Z,102085.72
2022-10-04T02:17:29.723Z,102073.63
2022-10-04T02:20:02.354Z,102086.56
2022-10-04T02:22:30.901Z,102082.25
2022-10-04T02:25:00.046Z,102058.91
2022-10-04T02:27:31.954Z,102068.44
2022-10-04T02:30:19.455Z,102058.94
2022-10-04T02:33:01.683Z,102061.53
2022-10-04T02:35:45.660Z,102055.47
2022-10-04T02:38:37.802Z,102037.34
2022-10-04T02:41:30.857Z,102037.34
2022-10-04T02:44:23.277Z,102044.25
2022-10-04T02:47:15.662Z,102044.25
2022-10-04T02:50:22.492Z,102027.84
2022-10-04T02:53:03.734Z,102032.16
2022-10-04T02:55:34.942Z,102018.34
2022-10-04T02:58:02.653Z,102033.91
2022-10-04T03:00:34.297Z,102022.69
2022-10-04T03:03:27.837Z,102021.81
2022-10-04T03:06:17.172Z,102033.03
2022-10-04T03:08:44.438Z,102025.25
2022-10-04T03:11:25.205Z,102020.94
2022-10-04T03:14:01.525Z,102023.53
2022-10-04T03:16:47.585Z,102023.53
2022-10-04T03:19:20.746Z,102014.91
2022-10-04T03:21:54.124Z,102008.84
2022-10-04T03:24:27.644Z,102001.94
2022-10-04T03:27:18.683Z,101994.19
2022-10-04T03:29:52.733Z,101984.69
2022-10-04T03:32:31.275Z,101993.31
2022-10-04T03:35:09.583Z,101997.66
2022-10-04T03:37:41.445Z,101991.56
2022-10-04T03:40:10.617Z,101983.81
2022-10-04T03:42:39.871Z,101996.75
2022-10-04T03:45:18.157Z,101995.06
2022-10-04T03:47:49.486Z,102001.09
2022-10-04T03:50:25.574Z,102001.97
2022-10-04T03:53:06.727Z,101996.78
2022-10-04T03:55:45.695Z,101989.00
2022-10-04T03:58:19.062Z,101993.31
2022-10-04T04:01:06.202Z,101979.50
2022-10-04T04:04:11.013Z,101989.88
2022-10-04T04:06:46.570Z,101977.78
2022-10-04T04:09:48.865Z,101986.41
2022-10-04T04:12:23.358Z,101997.66
2022-10-04T04:14:54.847Z,102001.94
2022-10-04T04:17:28.010Z,101997.63
2022-10-04T04:20:06.170Z,101990.72
2022-10-04T04:22:42.866Z,101988.97
2022-10-04T04:25:19.524Z,101980.38
2022-10-04T04:27:49.596Z,101986.38
2022-10-04T04:30:18.637Z,101974.31
2022-10-04T04:32:52.694Z,101978.63
2022-10-04T04:35:33.822Z,101982.09
2022-10-04T04:38:15.133Z,101968.25
2022-10-04T04:40:42.711Z,101970.00
2022-10-04T04:43:14.893Z,101967.41
2022-10-04T04:45:41.889Z,101976.91
2022-10-04T04:48:15.154Z,101964.81
2022-10-04T04:50:42.624Z,101958.78
2022-10-04T04:53:23.604Z,101966.53
2022-10-04T04:56:04.637Z,101956.19
2022-10-04T04:58:46.686Z,101959.63
2022-10-04T05:01:29.784Z,101957.03
2022-10-04T05:04:06.686Z,101951.00
2022-10-04T05:06:35.444Z,101949.28
2022-10-04T05:09:03.437Z,101945.81
2022-10-04T05:11:34.850Z,101937.19
2022-10-04T05:14:10.571Z,101940.66
2022-10-04T05:16:50.187Z,101945.81
2022-10-04T05:19:34.431Z,101941.50
2022-10-04T05:22:09.239Z,101943.22
2022-10-04T05:24:48.744Z,101940.63
2022-10-04T05:27:16.848Z,101947.53
2022-10-04T05:30:03.298Z,101951.84
2022-10-04T05:32:56.303Z,101955.28
2022-10-04T05:35:23.642Z,101957.03
2022-10-04T05:38:15.602Z,101962.22
2022-10-04T05:40:55.447Z,101957.00
2022-10-04T05:43:30.195Z,101955.28
2022-10-04T05:46:19.140Z,101954.44
2022-10-04T05:48:51.867Z,101950.09
2022-10-04T05:51:19.848Z,101953.59
2022-10-04T05:53:50.002Z,101953.59
2022-10-04T05:56:19.844Z,101952.69
2022-10-04T05:59:20.421Z,101946.66
2022-10-04T06:02:08.638Z,101944.94
2022-10-04T06:05:00.935Z,101946.66
2022-10-04T06:07:34.668Z,101945.78
2022-10-04T06:10:19.629Z,101941.47
2022-10-04T06:13:01.629Z,101951.00
2022-10-04T06:15:53.469Z,101954.41
2022-10-04T06:18:43.409Z,101952.69
2022-10-04T06:21:27.514Z,101950.97
2022-10-04T06:24:10.467Z,101948.41
2022-10-04T06:27:17.969Z,101951.84
2022-10-04T06:29:53.587Z,101956.16
2022-10-04T06:32:49.124Z,101955.28
2022-10-04T06:35:38.858Z,101950.97
2022-10-04T06:38:08.806Z,101953.56
2022-10-04T06:40:38.700Z,101952.69
2022-10-04T06:43:42.977Z,101961.34
2022-10-04T06:46:27.184Z,101953.56
2022-10-04T06:49:12.195Z,101953.56
2022-10-04T06:51:54.084Z,101944.94
2022-10-04T06:54:59.260Z,101951.84
2022-10-04T06:58:00.027Z,101947.53
2022-10-04T07:00:29.847Z,101957.88
2022-10-04T07:03:13.035Z,101950.13
2022-10-04T07:05:56.223Z,101950.09
2022-10-04T07:08:39.804Z,101952.69
2022-10-04T07:11:25.683Z,101957.03
2022-10-04T07:14:13.827Z,101962.22
2022-10-04T07:16:47.369Z,101957.91
2022-10-04T07:19:20.346Z,101957.88
2022-10-04T07:21:56.864Z,101960.50
2022-10-04T07:24:40.199Z,101956.19
2022-10-04T07:27:13.348Z,101958.78
2022-10-04T07:29:45.904Z,101960.50
2022-10-04T07:32:21.270Z,101965.66
2022-10-04T07:35:14.236Z,101969.13
2022-10-04T07:38:16.561Z,101963.09
2022-10-04T07:41:07.610Z,101966.53
2022-10-04T07:43:45.494Z,101967.41
2022-10-04T07:46:22.155Z,101960.50
2022-10-04T07:48:49.324Z,101968.28
2022-10-04T07:51:34.473Z,101966.56
2022-10-04T07:54:10.739Z,101976.94
2022-10-04T07:56:45.996Z,101977.78
2022-10-04T07:59:43.703Z,101976.06
2022-10-04T08:02:46.234Z,101969.16
2022-10-04T08:05:25.603Z,101960.50
2022-10-04T08:08:11.148Z,101951.03
2022-10-04T08:10:57.483Z,101960.50
2022-10-04T08:13:49.203Z,101966.56
2022-10-04T08:16:43.222Z,101960.50
2022-10-04T08:19:41.295Z,101964.00
2022-10-04T08:22:38.904Z,101954.47
2022-10-04T08:25:37.075Z,101952.72
2022-10-04T08:28:57.322Z,101949.28
2022-10-04T08:32:05.060Z,101954.47
2022-10-04T08:34:38.371Z,101947.56
2022-10-04T08:37:33.373Z,101949.28
2022-10-04T08:40:13.367Z,101944.97
2022-10-04T08:43:11.752Z,101954.47
2022-10-04T08:45:44.738Z,101945.81
2022-10-04T08:48:44.792Z,101961.34
2022-10-04T08:51:55.017Z,101945.81
2022-10-04T08:54:27.984Z,101956.19
2022-10-04T08:57:16.518Z,101955.31
2022-10-04T09:00:01.882Z,101946.63
2022-10-04T09:02:56.480Z,101949.22
2022-10-04T09:05:48.493Z,101945.75
2022-10-04T09:08:40.270Z,101953.50
2022-10-04T09:11:13.265Z,101944.00
2022-10-04T09:14:14.387Z,101952.59
2022-10-04T09:16:49.362Z,101949.13
2022-10-04T09:19:25.224Z,101938.72
2022-10-04T09:22:17.977Z,101942.16
2022-10-04T09:24:52.019Z,101937.81
2022-10-04T09:27:59.862Z,101931.72
2022-10-04T09:30:46.190Z,101923.91
2022-10-04T09:33:28.252Z,101926.44
2022-10-04T09:36:25.903Z,101923.81
2022-10-04T09:39:31.274Z,101927.25
2022-10-04T09:42:16.582Z,101934.09
2022-10-04T09:45:06.128Z,101933.22
2022-10-04T09:47:46.391Z,101924.53
2022-10-04T09:51:05.675Z,101921.03
2022-10-04T09:53:37.694Z,101917.53
2022-10-04T09:56:23.072Z,101920.06
2022-10-04T09:59:18.639Z,101909.63
2022-10-04T10:02:00.690Z,101906.09
2022-10-04T10:05:03.203Z,101912.97
2022-10-04T10:07:37.414Z,101910.31
2022-10-04T10:10:22.691Z,101910.25
2022-10-04T10:13:14.030Z,101924.06
2022-10-04T10:16:21.881Z,101916.19
2022-10-04T10:19:05.729Z,101914.44
2022-10-04T10:21:57.268Z,101910.91
2022-10-04T10:24:58.377Z,101911.69
2022-10-04T10:27:25.519Z,101906.47
2022-10-04T10:30:04.201Z,101905.53
2022-10-04T10:33:08.550Z,101899.41
2022-10-04T10:35:53.843Z,101897.59
2022-10-04T10:38:56.858Z,101899.25
2022-10-04T10:42:06.350Z,101895.72
2022-10-04T10:45:09.403Z,101891.31
2022-10-04T10:47:53.884Z,101885.16
2022-10-04T10:50:58.828Z,101888.53
2022-10-04T10:53:59.553Z,101878.94
2022-10-04T10:56:51.603Z,101872.81
2022-10-04T10:59:43.434Z,101879.66
2022-10-04T11:02:50.720Z,101878.72
2022-10-04T11:05:48.702Z,101869.13
2022-10-04T11:09:03.808Z,101875.97
2022-10-04T11:11:44.325Z,101873.31
2022-10-04T11:14:45.056Z,101861.13
2022-10-04T11:17:34.071Z,101861.88
2022-10-04T11:20:38.550Z,101855.72
2022-10-04T11:23:14.649Z,101844.41
2022-10-04T11:26:06.223Z,101846.94
2022-10-04T11:28:46.899Z,101840.81
2022-10-04T11:31:34.105Z,101845.13
2022-10-04T11:34:40.029Z,101847.66
2022-10-04T11:37:23.042Z,101840.66
2022-10-04T11:40:24.142Z,101839.78
2022-10-04T11:43:15.717Z,101843.19
2022-10-04T11:46:08.549Z,101844.84
2022-10-04T11:48:43.422Z,101831.75
2022-10-04T11:51:35.284Z,101839.53
2022-10-04T11:54:27.532Z,101838.63
2022-10-04T11:57:38.658Z,101838.56
2022-10-04T12:00:14.333Z,101840.25
2022-10-04T12:03:18.013Z,101848.03
2022-10-04T12:06:09.677Z,101845.31
2022-10-04T12:08:51.974Z,101840.94
2022-10-04T12:11:21.825Z,101842.56
2022-10-04T12:14:10.591Z,101838.16
2022-10-04T12:17:08.634Z,101838.97
2022-10-04T12:20:15.154Z,101820.66
2022-10-04T12:22:52.928Z,101813.69
2022-10-04T12:25:56.943Z,101812.75
2022-10-04T12:28:55.350Z,101809.19
2022-10-04T12:31:43.677Z,101796.16
2022-10-04T12:34:16.684Z,101797.78
2022-10-04T12:37:13.680Z,101794.25
2022-10-04T12:39:58.246Z,101793.31
2022-10-04T12:42:49.855Z,101783.72
2022-10-04T12:45:41.087Z,101776.63
2022-10-04T12:48:50.419Z,101777.44
2022-10-04T12:51:20.192Z,101768.66
2022-10-04T12:53:54.514Z,101768.59
2022-10-04T12:56:52.521Z,101765.91
2022-10-04T12:59:19.573Z,101758.06
2022-10-04T13:02:05.027Z,101765.78
2022-10-04T13:04:36.061Z,101763.13
2022-10-04T13:07:28.653Z,101766.56
2022-10-04T13:10:24.045Z,101761.22
2022-10-04T13:13:20.324Z,101761.09
2022-10-04T13:18:52.453Z,101755.81
2022-10-04T13:21:41.283Z,101760.03
2022-10-04T13:24:17.772Z,101750.38
2022-10-04T13:27:07.723Z,101738.16
2022-10-04T13:29:54.703Z,101740.69
2022-10-04T13:32:28.199Z,101732.78
2022-10-04T13:35:07.643Z,101734.50
2022-10-04T13:37:49.642Z,101732.72
2022-10-04T13:40:58.275Z,101733.56
2022-10-04T13:43:50.068Z,101728.19
2022-10-04T13:46:39.203Z,101716.00
2022-10-04T13:49:24.725Z,101708.13
2022-10-04T13:52:14.564Z,101708.06
2022-10-04T13:55:12.625Z,101705.44
2022-10-04T13:58:07.730Z,101701.91
2022-10-04T14:00:50.090Z,101693.25
2022-10-04T14:03:39.476Z,101699.31
2022-10-04T14:06:15.535Z,101693.16
2022-10-04T14:08:56.060Z,101691.41
2022-10-04T14:11:49.501Z,101693.94
2022-10-04T14:14:40.659Z,101693.91
2022-10-04T14:17:42.171Z,101702.56
2022-10-04T14:20:38.054Z,101697.31
2022-10-04T14:23:29.090Z,101700.75
2022-10-04T14:26:07.592Z,101689.41
2022-10-04T14:28:50.794Z,101690.25
2022-10-04T14:31:42.399Z,101685.84
2022-10-04T14:34:38.885Z,101683.22
2022-10-04T14:37:40.908Z,101680.56
2022-10-04T14:40:29.975Z,101676.19
2022-10-04T14:43:03.893Z,101670.09
2022-10-04T14:46:07.381Z,101666.56
2022-10-04T14:48:42.814Z,101659.59
2022-10-04T14:51:28.388Z,101655.22
2022-10-04T14:54:11.088Z,101662.16
2022-10-04T14:57:00.811Z,101667.34
2022-10-04T14:59:39.649Z,101670.81
2022-10-04T15:02:31.733Z,101662.88
2022-10-04T15:05:35.042Z,101663.72
2022-10-04T15:08:25.943Z,101655.88
2022-10-04T15:11:34.303Z,101658.41
2022-10-04T15:14:06.347Z,101645.25
2022-10-04T15:16:45.572Z,101646.09
2022-10-04T15:19:47.400Z,101649.53
2022-10-04T15:22:20.745Z,101651.25
2022-10-04T15:24:51.755Z,101646.00
2022-10-04T15:27:50.414Z,101643.38
2022-10-04T15:30:17.230Z,101646.78
2022-10-04T15:32:46.978Z,101654.63
2022-10-04T15:35:39.820Z,101657.19
2022-10-04T15:38:32.696Z,101651.97
2022-10-04T15:41:13.743Z,101653.72
2022-10-04T15:44:13.292Z,101659.72
2022-10-04T15:46:58.483Z,101670.16
2022-10-04T15:50:12.365Z,101655.41
2022-10-04T15:52:51.334Z,101652.78
2022-10-04T15:55:36.342Z,101654.47
2022-10-04T15:58:24.923Z,101650.16
2022-10-04T16:01:26.354Z,101651.88
2022-10-04T16:04:12.279Z,101655.41
2022-10-04T16:06:53.129Z,101659.72
2022-10-04T16:09:26.069Z,101658.91
2022-10-04T16:12:05.122Z,101658.91
2022-10-04T16:14:59.869Z,101665.00
2022-10-04T16:17:47.650Z,101667.63
2022-10-04T16:20:23.760Z,101664.16
2022-10-04T16:23:28.178Z,101664.16
2022-10-04T16:26:03.528Z,101665.09
2022-10-04T16:28:46.443Z,101663.41
2022-10-04T16:31:45.698Z,101654.78
2022-10-04T16:34:26.713Z,101661.78
2022-10-04T16:37:12.547Z,101646.25
2022-10-04T16:40:00.715Z,101645.41
2022-10-04T16:42:47.911Z,101636.75
2022-10-04T16:45:45.667Z,101636.06
2022-10-04T16:48:41.269Z,101644.84
2022-10-04T16:51:24.015Z,101640.63
2022-10-04T16:54:19.189Z,101645.97
2022-10-04T16:56:54.024Z,101649.53
2022-10-04T16:59:39.642Z,101648.81
2022-10-04T17:02:15.679Z,101650.63
2022-10-04T17:05:10.194Z,101640.31
2022-10-04T17:07:57.761Z,101638.78
2022-10-04T17:10:31.131Z,101643.28
2022-10-04T17:13:24.121Z,101646.84
2022-10-04T17:16:12.033Z,101641.81
2022-10-04T17:19:20.643Z,101644.53
2022-10-04T17:22:25.907Z,101651.66
2022-10-04T17:25:03.020Z,101657.91
2022-10-04T17:27:36.010Z,101660.63
2022-10-04T17:30:02.819Z,101655.53
2022-10-04T17:32:45.714Z,101659.97
2022-10-04T17:35:22.228Z,101659.22
2022-10-04T17:38:11.119Z,101655.03
2022-10-04T17:40:56.441Z,101665.63
2022-10-04T17:43:43.803Z,101673.53
2022-10-04T17:46:36.860Z,101673.63
2022-10-04T17:49:48.117Z,101676.38
2022-10-04T17:52:41.472Z,101674.75
2022-10-04T17:55:28.915Z,101680.94
2022-10-04T17:58:03.874Z,101679.31
2022-10-04T18:01:07.804Z,101681.16
2022-10-04T18:03:44.047Z,101672.59
2022-10-04T18:06:36.864Z,101683.94
2022-10-04T18:09:19.647Z,101685.78
2022-10-04T18:11:58.277Z,101692.84
2022-10-04T18:14:31.023Z,101692.06
2022-10-04T18:17:03.315Z,101691.25
2022-10-04T18:19:51.430Z,101691.28
2022-10-04T18:22:21.170Z,101694.81
2022-10-04T18:25:03.882Z,101695.72
2022-10-04T18:27:30.968Z,101695.78
2022-10-04T18:30:15.393Z,101703.66
2022-10-04T18:32:54.838Z,101708.06
2022-10-04T18:35:27.441Z,101707.22
2022-10-04T18:38:16.022Z,101712.47
2022-10-04T18:40:52.580Z,101728.16
2022-10-04T18:43:30.528Z,101727.31
2022-10-04T18:46:23.213Z,101730.91
2022-10-04T18:48:56.891Z,101731.81
2022-10-04T18:51:59.843Z,101731.03
2022-10-04T18:54:41.940Z,101742.34
2022-10-04T18:57:23.432Z,101738.03
2022-10-04T19:00:18.136Z,101739.88
2022-10-04T19:02:58.765Z,101735.56
2022-10-04T19:05:42.609Z,101728.69
2022-10-04T19:08:29.134Z,101729.63
2022-10-04T19:11:09.514Z,101734.78
2022-10-04T19:13:47.189Z,101718.38
2022-10-04T19:16:38.865Z,101709.75
2022-10-04T19:19:21.148Z,101707.19
2022-10-04T19:21:59.259Z,101700.31
2022-10-04T19:24:41.095Z,101694.28
2022-10-04T19:27:23.218Z,101696.97
2022-10-04T19:29:56.260Z,101700.44
2022-10-04T19:32:28.822Z,101694.44
2022-10-04T19:35:16.939Z,101703.13
2022-10-04T19:38:09.149Z,101688.47
2022-10-04T19:40:48.684Z,101698.88
2022-10-04T19:43:27.203Z,101701.50
2022-10-04T19:46:27.224Z,101705.03
2022-10-04T19:48:54.456Z,101711.97
2022-10-04T19:51:45.339Z,101712.00
2022-10-04T19:54:17.452Z,101716.34
2022-10-04T19:56:48.919Z,101717.28
2022-10-04T19:59:19.547Z,101712.09
2022-10-04T20:01:46.859Z,101720.78
2022-10-04T20:04:34.464Z,101712.16
2022-10-04T20:07:13.219Z,101707.88
2022-10-04T20:09:48.060Z,101711.38
2022-10-04T20:13:16.267Z,101713.13
2022-10-04T20:15:48.460Z,101700.19
2022-10-04T20:18:33.846Z,101706.28
2022-10-04T20:21:01.179Z,101708.94
2022-10-04T20:23:40.292Z,101719.38
2022-10-04T20:26:07.969Z,101712.47
2022-10-04T20:28:41.545Z,101715.09
2022-10-04T20:31:33.047Z,101709.06
2022-10-04T20:34:37.544Z,101704.78
2022-10-04T20:37:09.448Z,101697.88
2022-10-04T20:39:46.511Z,101704.84
2022-10-04T20:42:33.811Z,101703.97
2022-10-04T20:45:17.783Z,101696.25
2022-10-04T20:48:01.384Z,101692.88
2022-10-04T20:51:02.548Z,101692.84
2022-10-04T20:53:34.656Z,101691.19
2022-10-04T20:56:36.509Z,101691.22
2022-10-04T20:59:13.862Z,101691.25
2022-10-04T21:01:48.254Z,101686.13
2022-10-04T21:05:04.897Z,101687.81
2022-10-04T21:07:33.769Z,101691.28
2022-10-04T21:10:21.313Z,101700.84
2022-10-04T21:12:53.486Z,101693.06
2022-10-04T21:15:23.110Z,101677.59
2022-10-04T21:18:14.871Z,101688.81
2022-10-04T21:20:53.208Z,101690.59
2022-10-04T21:23:37.389Z,101699.19
2022-10-04T21:26:32.687Z,101696.63
2022-10-04T21:29:01.700Z,101701.81
2022-10-04T21:31:30.576Z,101685.41
2022-10-04T21:34:00.032Z,101711.34
2022-10-04T21:36:29.689Z,101697.56
2022-10-04T21:38:56.849Z,101714.84
2022-10-04T21:41:24.733Z,101707.97
2022-10-04T21:43:51.693Z,101701.03
2022-10-04T21:46:22.654Z,101697.59
2022-10-04T21:48:49.629Z,101689.84
2022-10-04T21:51:19.386Z,101698.44
2022-10-04T21:53:50.519Z,101693.31
2022-10-04T21:56:17.912Z,101698.44
2022-10-04T21:58:46.542Z,101700.19
2022-10-04T22:01:25.890Z,101692.44
2022-10-04T22:03:57.288Z,101707.09
2022-10-04T22:06:25.698Z,101708.88
2022-10-04T22:08:54.845Z,101713.19
2022-10-04T22:11:24.837Z,101705.41
2022-10-04T22:13:51.762Z,101697.63
2022-10-04T22:16:21.817Z,101700.22
2022-10-04T22:18:52.089Z,101688.13
2022-10-04T22:21:24.995Z,101688.97
2022-10-04T22:23:53.896Z,101682.03
2022-10-04T22:26:30.108Z,101681.22
2022-10-04T22:28:57.149Z,101683.78
2022-10-04T22:31:29.636Z,101678.59
2022-10-04T22:33:57.400Z,101677.72
2022-10-04T22:36:39.984Z,101678.59
2022-10-04T22:39:11.527Z,101695.09
2022-10-04T22:41:42.565Z,101702.84
2022-10-04T22:44:18.173Z,101702.03
2022-10-04T22:46:56.284Z,101701.19
2022-10-04T22:49:31.626Z,101701.19
2022-10-04T22:52:03.127Z,101702.06
2022-10-04T22:54:35.802Z,101696.06
2022-10-04T22:57:02.774Z,101691.72
2022-10-04T22:59:39.820Z,101687.41
2022-10-04T23:02:30.117Z,101677.03
2022-10-04T23:05:21.832Z,101686.53
2022-10-04T23:07:50.273Z,101667.56
2022-10-04T23:10:23.944Z,101661.53
2022-10-04T23:12:54.972Z,101675.34
2022-10-04T23:15:22.910Z,101672.72
2022-10-04T23:17:57.785Z,101684.84
2022-10-04T23:20:28.969Z,101683.13
2022-10-04T23:23:00.277Z,101669.28
2022-10-04T23:25:31.597Z,101681.38
2022-10-04T23:28:07.916Z,101678.75
2022-10-04T23:30:42.349Z,101673.56
2022-10-04T23:33:35.290Z,101679.59
2022-10-04T23:36:03.143Z,101664.97
2022-10-04T23:38:52.566Z,101679.59
2022-10-04T23:41:21.985Z,101672.72
2022-10-04T23:43:51.144Z,101677.03
2022-10-04T23:46:27.804Z,101670.97
2022-10-04T23:48:55.649Z,101662.31
2022-10-04T23:51:23.497Z,101666.63
2022-10-04T23:53:55.666Z,101659.72
2022-10-04T23:56:30.034Z,101657.97
2022-10-04T23:59:05.362Z,101651.06
